ěÝzenÝ letovÚho provozu ╚eskÚ republiky
Letiste: LKPD Aktualizace: 29.07.2021 10:56:28  UTC
 METAR LKPD 29.07. 11:00 ...
METAR LKPD 291100Z 26018G26KT CAVOK 25/10 Q1014 NOSIG RMK BLU BLU=
 TAF LKPD 29.07. 05:00 ...
TAF LKPD 290500Z 2906/3006 27006KT CAVOK      TEMPO 2908/2910 BKN040      BECMG 2909/2911 28012KT      BECMG 2917/2919 25006KT      BECMG 2921/2923 VRB02KT=